This is the latest recevied weather packets stored in our database for station/object S56IAR-13. If no packets are shown the sender has not sent any weather packets the latest 10 day(s).
| Time | Temp. | Humidity | Pressure | Rain* | Wind** | Luminosity | Snow |
|---|---|---|---|---|---|---|---|
| 1777633805 | 15° C | 41% | 973.1 hPa | 0 mm | - | 102 W/m² | - |
| 1777632905 | 15° C | 41% | 973.3 hPa | 0 mm | - | 533 W/m² | - |
| 1777628403 | 13.33° C | 43% | 974 hPa | 0 mm | - | 712 W/m² | - |
| 1777627204 | 13.89° C | 41% | 974.2 hPa | 0 mm | - | 685 W/m² | - |
| 1777626305 | 13.33° C | 41% | 974.1 hPa | 0 mm | - | 658 W/m² | - |
| 1777624805 | 12.78° C | 40% | 974.1 hPa | 0 mm | - | 612 W/m² | - |
| 1777622834 | 11.67° C | 43% | 974.3 hPa | 0 mm | - | 536 W/m² | - |
| 1777621935 | 11.67° C | 46% | 974.3 hPa | 0 mm | - | 497 W/m² | - |
| 1777621205 | 11.11° C | 47% | 974.2 hPa | 0 mm | - | 463 W/m² | - |
| 1777619703 | 7.78° C | 57% | 974.1 hPa | 0 mm | - | 45 W/m² | - |
| 1777619405 | 7.22° C | 62% | 974 hPa | 0 mm | - | 48 W/m² | - |
| 1777617004 | 3.33° C | 80% | 973.8 hPa | 0 mm | - | 39 W/m² | - |
| 1777615505 | 1.67° C | 89% | 973.7 hPa | 0 mm | - | 31 W/m² | - |
| 1777614303 | 0.56° C | 93% | 973.8 hPa | 0 mm | - | 29 W/m² | - |
| 1777612204 | -1.11° C | 94% | 973.7 hPa | 0 mm | - | 24 W/m² | - |
| 1777611903 | -1.11° C | 94% | 973.6 hPa | 0 mm | - | 24 W/m² | - |
| 1777610835 | -1.11° C | 94% | 973.6 hPa | 0 mm | - | 20 W/m² | - |
| 1777610105 | -1.11° C | 94% | 973.4 hPa | 0 mm | - | 17 W/m² | - |
| 1777607405 | -1.67° C | 94% | 973.1 hPa | 0 mm | - | 2 W/m² | - |
| 1777607233 | -1.67° C | 94% | 973.2 hPa | 0 mm | - | 1 W/m² | - |
| 1777603803 | -1.11° C | 93% | 973.3 hPa | 0 mm | - | 0 W/m² | - |
| 1777602303 | -1.11° C | 93% | 973.4 hPa | 0 mm | - | 0 W/m² | - |
| 1777595703 | -0.56° C | 91% | 973.8 hPa | 0 mm | - | 0 W/m² | - |
| 1777592703 | 0° C | 90% | 973.7 hPa | 0 mm | - | 0 W/m² | - |
| 1777589403 | 0.56° C | 90% | 974 hPa | 0 mm | - | 0 W/m² | - |
* Rain latest hour (hover to see other rain measurements)
** Current wind speed in m/s (hover to see current wind gust speed)